sensor_id;sensor_type;location;lat;lon;timestamp;pressure;altitude;pressure_sealevel;temperature;humidity
65557;BME280;52200;53.490;14.376;2023-02-14T00:00:17;103573.44;;;5.56;79.14
65557;BME280;52200;53.490;14.376;2023-02-14T00:02:42;103590.59;;;5.24;79.67
65557;BME280;52200;53.490;14.376;2023-02-14T00:05:07;103580.59;;;5.06;80.32
65557;BME280;52200;53.490;14.376;2023-02-14T00:07:33;103590.72;;;5.27;79.75
65557;BME280;52200;53.490;14.376;2023-02-14T00:09:58;103584.28;;;5.33;79.67
65557;BME280;52200;53.490;14.376;2023-02-14T00:12:23;103582.13;;;5.43;79.10
65557;BME280;52200;53.490;14.376;2023-02-14T00:14:49;103577.34;;;5.49;78.94
65557;BME280;52200;53.490;14.376;2023-02-14T00:17:33;103587.38;;;5.69;78.88
65557;BME280;52200;53.490;14.376;2023-02-14T00:19:58;103589.91;;;5.47;78.80
65557;BME280;52200;53.490;14.376;2023-02-14T00:22:23;103590.69;;;5.46;79.04
65557;BME280;52200;53.490;14.376;2023-02-14T00:24:49;103589.56;;;5.59;78.84
65557;BME280;52200;53.490;14.376;2023-02-14T00:27:14;103592.94;;;5.60;78.87
65557;BME280;52200;53.490;14.376;2023-02-14T00:29:40;103598.44;;;5.30;79.49
65557;BME280;52200;53.490;14.376;2023-02-14T00:32:05;103603.19;;;5.43;79.56
65557;BME280;52200;53.490;14.376;2023-02-14T00:34:30;103590.66;;;5.66;79.34
65557;BME280;52200;53.490;14.376;2023-02-14T00:36:57;103596.25;;;5.59;79.32
65557;BME280;52200;53.490;14.376;2023-02-14T00:39:23;103605.38;;;5.57;78.99
65557;BME280;52200;53.490;14.376;2023-02-14T00:41:48;103603.59;;;5.33;79.15
65557;BME280;52200;53.490;14.376;2023-02-14T00:44:13;103600.59;;;5.42;79.30
65557;BME280;52200;53.490;14.376;2023-02-14T00:46:40;103597.28;;;5.64;79.47
65557;BME280;52200;53.490;14.376;2023-02-14T00:49:05;103600.81;;;5.27;80.37
65557;BME280;52200;53.490;14.376;2023-02-14T00:51:31;103594.09;;;5.47;79.51
65557;BME280;52200;53.490;14.376;2023-02-14T00:53:56;103595.06;;;5.51;80.27
65557;BME280;52200;53.490;14.376;2023-02-14T00:56:22;103593.03;;;5.42;79.95
65557;BME280;52200;53.490;14.376;2023-02-14T00:58:48;103590.25;;;5.36;80.02
65557;BME280;52200;53.490;14.376;2023-02-14T01:01:15;103579.56;;;5.41;79.80
65557;BME280;52200;53.490;14.376;2023-02-14T01:03:40;103595.66;;;5.24;80.90
65557;BME280;52200;53.490;14.376;2023-02-14T01:06:07;103597.16;;;5.40;80.33
65557;BME280;52200;53.490;14.376;2023-02-14T01:08:32;103592.59;;;5.31;80.43
65557;BME280;52200;53.490;14.376;2023-02-14T01:11:10;103588.38;;;5.51;80.38
65557;BME280;52200;53.490;14.376;2023-02-14T01:13:36;103592.72;;;5.34;80.31
65557;BME280;52200;53.490;14.376;2023-02-14T01:16:08;103583.13;;;5.46;80.22
65557;BME280;52200;53.490;14.376;2023-02-14T01:18:34;103588.22;;;5.48;79.58
65557;BME280;52200;53.490;14.376;2023-02-14T01:21:30;103583.84;;;5.23;80.19
65557;BME280;52200;53.490;14.376;2023-02-14T01:23:58;103594.09;;;5.47;80.48
65557;BME280;52200;53.490;14.376;2023-02-14T01:26:25;103589.34;;;5.55;80.24
65557;BME280;52200;53.490;14.376;2023-02-14T01:28:51;103585.19;;;5.36;80.46
65557;BME280;52200;53.490;14.376;2023-02-14T01:31:20;103578.34;;;5.53;80.32
65557;BME280;52200;53.490;14.376;2023-02-14T01:33:47;103583.38;;;5.53;79.29
65557;BME280;52200;53.490;14.376;2023-02-14T01:36:30;103581.66;;;5.52;79.36
65557;BME280;52200;53.490;14.376;2023-02-14T01:38:58;103586.44;;;5.45;80.05
65557;BME280;52200;53.490;14.376;2023-02-14T01:41:26;103578.56;;;5.38;79.91
65557;BME280;52200;53.490;14.376;2023-02-14T01:44:03;103579.56;;;5.41;80.01
65557;BME280;52200;53.490;14.376;2023-02-14T01:46:31;103580.63;;;5.27;80.80
65557;BME280;52200;53.490;14.376;2023-02-14T01:49:04;103586.56;;;5.08;81.48
65557;BME280;52200;53.490;14.376;2023-02-14T01:51:35;103583.34;;;5.31;80.85
65557;BME280;52200;53.490;14.376;2023-02-14T01:54:05;103580.88;;;5.33;80.82
65557;BME280;52200;53.490;14.376;2023-02-14T01:56:35;103575.19;;;5.37;80.46
65557;BME280;52200;53.490;14.376;2023-02-14T01:59:05;103571.53;;;5.30;80.04
65557;BME280;52200;53.490;14.376;2023-02-14T02:01:32;103567.47;;;5.54;80.26
65557;BME280;52200;53.490;14.376;2023-02-14T02:04:02;103574.09;;;5.52;79.87
65557;BME280;52200;53.490;14.376;2023-02-14T02:06:35;103564.09;;;5.53;79.80
65557;BME280;52200;53.490;14.376;2023-02-14T02:09:07;103567.75;;;5.61;79.69
65557;BME280;52200;53.490;14.376;2023-02-14T02:11:34;103563.47;;;5.59;80.20
65557;BME280;52200;53.490;14.376;2023-02-14T02:13:59;103565.28;;;5.63;79.62
65557;BME280;52200;53.490;14.376;2023-02-14T02:16:40;103566.72;;;5.15;81.19
65557;BME280;52200;53.490;14.376;2023-02-14T02:28:33;103558.22;;;5.33;80.95
65557;BME280;52200;53.490;14.376;2023-02-14T02:44:23;103565.50;;;5.27;81.08
65557;BME280;52200;53.490;14.376;2023-02-14T02:47:09;103562.97;;;5.46;80.55
65557;BME280;52200;53.490;14.376;2023-02-14T02:56:04;103562.84;;;5.64;79.34
65557;BME280;52200;53.490;14.376;2023-02-14T02:58:55;103569.13;;;5.53;80.12
65557;BME280;52200;53.490;14.376;2023-02-14T03:01:29;103572.06;;;5.43;79.96
65557;BME280;52200;53.490;14.376;2023-02-14T03:04:03;103574.81;;;5.49;80.37
65557;BME280;52200;53.490;14.376;2023-02-14T03:06:49;103573.00;;;5.66;79.71
65557;BME280;52200;53.490;14.376;2023-02-14T03:14:46;103575.53;;;5.25;79.78
65557;BME280;52200;53.490;14.376;2023-02-14T03:17:24;103581.38;;;5.05;81.22
65557;BME280;52200;53.490;14.376;2023-02-14T03:20:22;103581.25;;;5.21;81.15
65557;BME280;52200;53.490;14.376;2023-02-14T03:22:54;103580.16;;;5.36;80.53
65557;BME280;52200;53.490;14.376;2023-02-14T03:28:19;103584.69;;;5.23;80.91
65557;BME280;52200;53.490;14.376;2023-02-14T03:33:43;103585.19;;;5.36;80.15
65557;BME280;52200;53.490;14.376;2023-02-14T03:36:18;103581.72;;;5.12;81.22
65557;BME280;52200;53.490;14.376;2023-02-14T03:39:15;103575.81;;;5.12;80.54
65557;BME280;52200;53.490;14.376;2023-02-14T03:41:48;103586.09;;;5.36;81.04
65557;BME280;52200;53.490;14.376;2023-02-14T03:44:17;103587.63;;;5.54;79.49
65557;BME280;52200;53.490;14.376;2023-02-14T03:47:11;103591.19;;;5.59;79.58
65557;BME280;52200;53.490;14.376;2023-02-14T03:49:39;103587.88;;;5.60;79.63
65557;BME280;52200;53.490;14.376;2023-02-14T03:52:09;103585.69;;;5.27;80.14
65557;BME280;52200;53.490;14.376;2023-02-14T03:54:36;103583.13;;;5.46;79.79
65557;BME280;52200;53.490;14.376;2023-02-14T03:57:12;103585.94;;;5.33;80.47
65557;BME280;52200;53.490;14.376;2023-02-14T03:59:40;103583.13;;;5.46;80.64
65557;BME280;52200;53.490;14.376;2023-02-14T04:02:10;103574.63;;;5.44;80.14
65557;BME280;52200;53.490;14.376;2023-02-14T04:04:43;103576.25;;;5.42;79.87
65557;BME280;52200;53.490;14.376;2023-02-14T04:07:15;103582.50;;;5.31;80.42
65557;BME280;52200;53.490;14.376;2023-02-14T04:09:40;103582.38;;;5.08;80.73
65557;BME280;52200;53.490;14.376;2023-02-14T04:12:06;103590.59;;;5.24;80.28
65557;BME280;52200;53.490;14.376;2023-02-14T04:14:32;103588.66;;;5.38;79.42
65557;BME280;52200;53.490;14.376;2023-02-14T04:16:57;103586.34;;;5.42;80.43
65557;BME280;52200;53.490;14.376;2023-02-14T04:19:41;103581.03;;;5.36;79.70
65557;BME280;52200;53.490;14.376;2023-02-14T04:22:07;103574.63;;;5.44;79.29
65557;BME280;52200;53.490;14.376;2023-02-14T04:24:32;103569.22;;;5.35;79.48
65557;BME280;52200;53.490;14.376;2023-02-14T04:26:57;103573.53;;;5.38;80.04
65557;BME280;52200;53.490;14.376;2023-02-14T04:29:36;103575.34;;;5.21;79.88
65557;BME280;52200;53.490;14.376;2023-02-14T04:32:02;103580.44;;;5.22;79.92
65557;BME280;52200;53.490;14.376;2023-02-14T04:34:28;103577.00;;;5.20;79.71
65557;BME280;52200;53.490;14.376;2023-02-14T04:36:53;103574.81;;;5.28;79.84
65557;BME280;52200;53.490;14.376;2023-02-14T04:39:18;103576.06;;;5.18;79.69
65557;BME280;52200;53.490;14.376;2023-02-14T04:41:44;103563.00;;;5.07;80.09
65557;BME280;52200;53.490;14.376;2023-02-14T04:44:09;103569.66;;;5.05;80.96
65557;BME280;52200;53.490;14.376;2023-02-14T04:46:34;103564.13;;;5.33;79.67
65557;BME280;52200;53.490;14.376;2023-02-14T04:49:00;103567.78;;;5.01;80.80
65557;BME280;52200;53.490;14.376;2023-02-14T04:51:25;103568.94;;;4.88;80.74
65557;BME280;52200;53.490;14.376;2023-02-14T04:53:50;103558.53;;;4.80;81.33
65557;BME280;52200;53.490;14.376;2023-02-14T04:56:16;103557.44;;;5.14;80.56
65557;BME280;52200;53.490;14.376;2023-02-14T04:58:41;103573.38;;;4.74;81.41
65557;BME280;52200;53.490;14.376;2023-02-14T05:01:06;103564.00;;;4.91;81.52
65557;BME280;52200;53.490;14.376;2023-02-14T05:03:31;103572.81;;;5.21;80.37
65557;BME280;52200;53.490;14.376;2023-02-14T05:05:57;103571.78;;;4.96;80.33
65557;BME280;52200;53.490;14.376;2023-02-14T05:08:22;103575.69;;;4.89;80.53
65557;BME280;52200;53.490;14.376;2023-02-14T05:10:48;103570.66;;;5.09;80.46
65557;BME280;52200;53.490;14.376;2023-02-14T05:13:13;103569.25;;;5.15;80.50
65557;BME280;52200;53.490;14.376;2023-02-14T05:15:38;103573.09;;;5.07;80.34
65557;BME280;52200;53.490;14.376;2023-02-14T05:18:04;103564.75;;;5.08;80.05
65557;BME280;52200;53.490;14.376;2023-02-14T05:20:30;103565.53;;;5.07;79.81
65557;BME280;52200;53.490;14.376;2023-02-14T05:22:56;103568.72;;;5.23;79.91
65557;BME280;52200;53.490;14.376;2023-02-14T05:25:28;103559.31;;;5.19;79.79
65557;BME280;52200;53.490;14.376;2023-02-14T05:27:53;103563.75;;;5.45;78.88
65557;BME280;52200;53.490;14.376;2023-02-14T05:30:19;103547.72;;;5.43;78.33
65557;BME280;52200;53.490;14.376;2023-02-14T05:32:49;103549.75;;;5.31;78.55
65557;BME280;52200;53.490;14.376;2023-02-14T05:35:14;103563.63;;;5.42;79.04
65557;BME280;52200;53.490;14.376;2023-02-14T05:37:40;103557.06;;;5.25;78.96
65557;BME280;52200;53.490;14.376;2023-02-14T05:40:06;103549.75;;;5.11;79.15
65557;BME280;52200;53.490;14.376;2023-02-14T05:42:32;103562.75;;;5.21;79.52
65557;BME280;52200;53.490;14.376;2023-02-14T05:44:57;103561.56;;;5.12;79.13
65557;BME280;52200;53.490;14.376;2023-02-14T05:47:23;103547.06;;;5.28;78.86
65557;BME280;52200;53.490;14.376;2023-02-14T05:49:48;103567.06;;;5.04;79.17
65557;BME280;52200;53.490;14.376;2023-02-14T05:52:13;103568.41;;;5.15;79.92
65557;BME280;52200;53.490;14.376;2023-02-14T05:54:39;103552.16;;;5.29;79.14
65557;BME280;52200;53.490;14.376;2023-02-14T05:57:04;103553.84;;;5.29;79.31
65557;BME280;52200;53.490;14.376;2023-02-14T05:59:29;103566.50;;;5.30;79.02
65557;BME280;52200;53.490;14.376;2023-02-14T06:01:55;103570.72;;;5.10;79.67
65557;BME280;52200;53.490;14.376;2023-02-14T06:04:20;103570.84;;;5.13;80.13
65557;BME280;52200;53.490;14.376;2023-02-14T06:06:45;103574.19;;;4.93;79.43
65557;BME280;52200;53.490;14.376;2023-02-14T06:09:11;103566.47;;;5.09;79.39
65557;BME280;52200;53.490;14.376;2023-02-14T06:11:36;103573.50;;;4.97;79.88
65557;BME280;52200;53.490;14.376;2023-02-14T06:14:02;103559.97;;;4.95;80.17
65557;BME280;52200;53.490;14.376;2023-02-14T06:16:27;103586.03;;;5.15;79.91
65557;BME280;52200;53.490;14.376;2023-02-14T06:18:52;103583.59;;;5.16;79.45
65557;BME280;52200;53.490;14.376;2023-02-14T06:21:18;103593.41;;;5.10;79.22
65557;BME280;52200;53.490;14.376;2023-02-14T06:23:43;103591.66;;;5.09;79.29
65557;BME280;52200;53.490;14.376;2023-02-14T06:26:08;103582.97;;;5.22;79.24
65557;BME280;52200;53.490;14.376;2023-02-14T06:28:34;103579.47;;;5.19;78.93
65557;BME280;52200;53.490;14.376;2023-02-14T06:30:59;103576.03;;;5.16;79.34
65557;BME280;52200;53.490;14.376;2023-02-14T06:33:24;103592.84;;;5.37;79.17
65557;BME280;52200;53.490;14.376;2023-02-14T06:35:52;103585.19;;;5.36;78.33
65557;BME280;52200;53.490;14.376;2023-02-14T06:38:18;103586.09;;;5.36;78.95
65557;BME280;52200;53.490;14.376;2023-02-14T06:40:43;103581.22;;;5.41;78.56
65557;BME280;52200;53.490;14.376;2023-02-14T06:43:09;103582.88;;;5.40;78.54
65557;BME280;52200;53.490;14.376;2023-02-14T06:45:34;103586.44;;;5.45;78.55
65557;BME280;52200;53.490;14.376;2023-02-14T06:48:00;103585.59;;;5.45;78.55
65557;BME280;52200;53.490;14.376;2023-02-14T06:50:26;103575.81;;;5.12;78.80
65557;BME280;52200;53.490;14.376;2023-02-14T06:52:51;103578.38;;;5.33;78.22
65557;BME280;52200;53.490;14.376;2023-02-14T06:55:17;103589.59;;;5.40;78.85
65557;BME280;52200;53.490;14.376;2023-02-14T06:57:43;103584.25;;;4.93;79.38
65557;BME280;52200;53.490;14.376;2023-02-14T07:00:10;103586.22;;;5.20;78.91
65557;BME280;52200;53.490;14.376;2023-02-14T07:02:35;103583.88;;;5.44;78.79
65557;BME280;52200;53.490;14.376;2023-02-14T07:05:01;103588.56;;;5.56;78.39
65557;BME280;52200;53.490;14.376;2023-02-14T07:07:26;103578.81;;;5.44;78.16
65557;BME280;52200;53.490;14.376;2023-02-14T07:09:51;103572.84;;;5.63;77.58
65557;BME280;52200;53.490;14.376;2023-02-14T07:12:17;103584.19;;;5.73;77.14
65557;BME280;52200;53.490;14.376;2023-02-14T07:14:42;103580.19;;;5.57;77.35
65557;BME280;52200;53.490;14.376;2023-02-14T07:17:08;103592.88;;;5.79;77.11
65557;BME280;52200;53.490;14.376;2023-02-14T07:19:33;103595.25;;;5.76;76.83
65557;BME280;52200;53.490;14.376;2023-02-14T07:21:59;103603.22;;;5.86;77.16
65557;BME280;52200;53.490;14.376;2023-02-14T07:24:24;103608.75;;;5.98;76.55
65557;BME280;52200;53.490;14.376;2023-02-14T07:26:50;103598.91;;;6.04;76.56
65557;BME280;52200;53.490;14.376;2023-02-14T07:29:15;103596.69;;;6.12;76.76
65557;BME280;52200;53.490;14.376;2023-02-14T07:31:41;103604.78;;;5.84;77.46
65557;BME280;52200;53.490;14.376;2023-02-14T07:34:06;103607.38;;;6.06;76.96
65557;BME280;52200;53.490;14.376;2023-02-14T07:36:32;103608.69;;;6.18;76.43
65557;BME280;52200;53.490;14.376;2023-02-14T07:38:58;103604.53;;;6.20;75.96
65557;BME280;52200;53.490;14.376;2023-02-14T07:41:23;103602.47;;;6.09;76.13
65557;BME280;52200;53.490;14.376;2023-02-14T07:43:49;103596.44;;;5.85;77.18
65557;BME280;52200;53.490;14.376;2023-02-14T07:46:14;103602.50;;;5.90;76.73
65557;BME280;52200;53.490;14.376;2023-02-14T07:48:41;103597.53;;;6.12;76.03
65557;BME280;52200;53.490;14.376;2023-02-14T07:51:07;103600.13;;;6.14;75.91
65557;BME280;52200;53.490;14.376;2023-02-14T07:53:32;103593.13;;;6.07;76.53
65557;BME280;52200;53.490;14.376;2023-02-14T07:55:57;103599.84;;;6.29;75.76
65557;BME280;52200;53.490;14.376;2023-02-14T07:58:23;103602.09;;;6.21;75.42
65557;BME280;52200;53.490;14.376;2023-02-14T08:00:48;103607.63;;;5.91;76.21
65557;BME280;52200;53.490;14.376;2023-02-14T08:03:15;103597.91;;;6.22;75.63
65557;BME280;52200;53.490;14.376;2023-02-14T08:05:41;103606.16;;;6.18;75.60
65557;BME280;52200;53.490;14.376;2023-02-14T08:08:06;103606.88;;;6.36;75.29
65557;BME280;52200;53.490;14.376;2023-02-14T08:10:32;103609.47;;;5.95;75.63
65557;BME280;52200;53.490;14.376;2023-02-14T08:12:57;103612.06;;;6.18;75.23
65557;BME280;52200;53.490;14.376;2023-02-14T08:15:23;103607.19;;;6.23;75.54
65557;BME280;52200;53.490;14.376;2023-02-14T08:18:07;103617.06;;;6.39;75.53
65557;BME280;52200;53.490;14.376;2023-02-14T08:20:32;103616.97;;;5.94;76.14
65557;BME280;52200;53.490;14.376;2023-02-14T08:22:58;103622.53;;;6.27;76.03
65557;BME280;52200;53.490;14.376;2023-02-14T08:25:23;103618.47;;;6.10;75.80
65557;BME280;52200;53.490;14.376;2023-02-14T08:27:48;103625.78;;;6.04;75.29
65557;BME280;52200;53.490;14.376;2023-02-14T08:30:14;103632.50;;;6.24;74.87
65557;BME280;52200;53.490;14.376;2023-02-14T08:32:40;103638.88;;;6.37;74.94
65557;BME280;52200;53.490;14.376;2023-02-14T08:35:05;103644.59;;;6.10;74.56
65557;BME280;52200;53.490;14.376;2023-02-14T08:37:31;103635.97;;;6.05;75.21
65557;BME280;52200;53.490;14.376;2023-02-14T08:39:57;103652.44;;;6.39;74.50
65557;BME280;52200;53.490;14.376;2023-02-14T08:42:22;103639.22;;;6.47;74.30
65557;BME280;52200;53.490;14.376;2023-02-14T08:44:47;103640.56;;;6.16;74.04
65557;BME280;52200;53.490;14.376;2023-02-14T08:47:13;103641.50;;;6.18;74.53
65557;BME280;52200;53.490;14.376;2023-02-14T08:49:38;103641.72;;;6.45;74.84
65557;BME280;52200;53.490;14.376;2023-02-14T08:52:03;103639.41;;;6.74;73.13
65557;BME280;52200;53.490;14.376;2023-02-14T08:54:29;103634.16;;;6.69;73.18
65557;BME280;52200;53.490;14.376;2023-02-14T08:56:54;103636.13;;;6.54;73.95
65557;BME280;52200;53.490;14.376;2023-02-14T08:59:20;103636.03;;;6.73;73.84
65557;BME280;52200;53.490;14.376;2023-02-14T09:01:45;103646.31;;;6.11;74.55
65557;BME280;52200;53.490;14.376;2023-02-14T09:04:10;103636.13;;;6.54;73.70
65557;BME280;52200;53.490;14.376;2023-02-14T09:06:38;103633.88;;;6.61;73.38
65557;BME280;52200;53.490;14.376;2023-02-14T09:09:03;103642.34;;;6.62;73.01
65557;BME280;52200;53.490;14.376;2023-02-14T09:11:30;103643.91;;;6.58;73.74
65557;BME280;52200;53.490;14.376;2023-02-14T09:13:55;103643.81;;;6.34;73.84
65557;BME280;52200;53.490;14.376;2023-02-14T09:16:22;103651.91;;;6.48;74.25
65557;BME280;52200;53.490;14.376;2023-02-14T09:18:49;103650.25;;;6.49;73.29
65557;BME280;52200;53.490;14.376;2023-02-14T09:21:19;103660.31;;;6.26;73.79
65557;BME280;52200;53.490;14.376;2023-02-14T09:23:45;103654.69;;;6.10;74.28
65557;BME280;52200;53.490;14.376;2023-02-14T09:26:12;103656.44;;;6.34;74.30
65557;BME280;52200;53.490;14.376;2023-02-14T09:28:38;103664.03;;;6.80;73.44
65557;BME280;52200;53.490;14.376;2023-02-14T09:31:18;103661.69;;;7.08;72.73
65557;BME280;52200;53.490;14.376;2023-02-14T09:33:44;103663.06;;;7.00;72.40
65557;BME280;52200;53.490;14.376;2023-02-14T09:36:10;103668.97;;;6.54;72.91
65557;BME280;52200;53.490;14.376;2023-02-14T09:38:54;103660.59;;;6.77;73.12
65557;BME280;52200;53.490;14.376;2023-02-14T09:47:21;103656.66;;;7.33;70.75
65557;BME280;52200;53.490;14.376;2023-02-14T09:49:51;103654.38;;;7.40;70.48
65557;BME280;52200;53.490;14.376;2023-02-14T09:52:19;103656.31;;;7.23;69.82
65557;BME280;52200;53.490;14.376;2023-02-14T09:54:50;103650.06;;;7.38;70.47
65557;BME280;52200;53.490;14.376;2023-02-14T10:06:02;103657.16;;;7.48;69.54
65557;BME280;52200;53.490;14.376;2023-02-14T10:08:57;103657.97;;;7.73;69.45
65557;BME280;52200;53.490;14.376;2023-02-14T10:11:26;103653.47;;;7.38;69.48
65557;BME280;52200;53.490;14.376;2023-02-14T10:14:00;103645.34;;;7.23;69.23
65557;BME280;52200;53.490;14.376;2023-02-14T10:16:37;103644.50;;;7.48;68.07
65557;BME280;52200;53.490;14.376;2023-02-14T10:19:18;103645.19;;;7.42;68.96
65557;BME280;52200;53.490;14.376;2023-02-14T10:22:00;103646.28;;;7.77;68.60
65557;BME280;52200;53.490;14.376;2023-02-14T10:24:30;103646.16;;;7.99;67.83
65557;BME280;52200;53.490;14.376;2023-02-14T10:29:56;103648.84;;;7.52;68.06
65557;BME280;52200;53.490;14.376;2023-02-14T10:32:39;103645.69;;;7.58;68.06
65557;BME280;52200;53.490;14.376;2023-02-14T10:44:02;103633.75;;;7.80;67.02
65557;BME280;52200;53.490;14.376;2023-02-14T10:54:37;103643.34;;;7.90;65.81
65557;BME280;52200;53.490;14.376;2023-02-14T10:57:42;103643.75;;;8.02;64.84
65557;BME280;52200;53.490;14.376;2023-02-14T11:00:31;103643.19;;;8.13;64.67
65557;BME280;52200;53.490;14.376;2023-02-14T11:03:00;103644.38;;;8.24;64.18
65557;BME280;52200;53.490;14.376;2023-02-14T11:05:55;103639.28;;;8.22;64.24
65557;BME280;52200;53.490;14.376;2023-02-14T11:10:51;103633.00;;;8.10;64.23
65557;BME280;52200;53.490;14.376;2023-02-14T11:13:36;103627.50;;;8.23;64.53
65557;BME280;52200;53.490;14.376;2023-02-14T11:16:05;103633.06;;;8.13;65.76
65557;BME280;52200;53.490;14.376;2023-02-14T11:18:33;103630.56;;;8.42;64.74
65557;BME280;52200;53.490;14.376;2023-02-14T11:21:03;103628.50;;;8.57;64.91
65557;BME280;52200;53.490;14.376;2023-02-14T11:23:49;103615.88;;;8.59;64.46
65557;BME280;52200;53.490;14.376;2023-02-14T11:26:22;103610.78;;;8.30;64.26
65557;BME280;52200;53.490;14.376;2023-02-14T11:31:32;103611.47;;;7.97;64.17
65557;BME280;52200;53.490;14.376;2023-02-14T11:33:59;103605.84;;;7.52;65.61
65557;BME280;52200;53.490;14.376;2023-02-14T11:36:26;103600.38;;;7.66;65.60
65557;BME280;52200;53.490;14.376;2023-02-14T11:39:25;103599.59;;;7.94;64.62
65557;BME280;52200;53.490;14.376;2023-02-14T11:41:50;103597.63;;;7.85;64.18
65557;BME280;52200;53.490;14.376;2023-02-14T11:44:22;103596.63;;;8.36;64.15
65557;BME280;52200;53.490;14.376;2023-02-14T11:46:49;103598.81;;;8.51;63.10
65557;BME280;52200;53.490;14.376;2023-02-14T11:49:25;103586.97;;;8.82;62.59
65557;BME280;52200;53.490;14.376;2023-02-14T11:51:53;103584.78;;;8.95;62.75
65557;BME280;52200;53.490;14.376;2023-02-14T11:54:37;103581.63;;;9.03;62.25
65557;BME280;52200;53.490;14.376;2023-02-14T11:57:07;103588.31;;;8.69;64.04
65557;BME280;52200;53.490;14.376;2023-02-14T12:02:10;103570.69;;;8.74;61.82
65557;BME280;52200;53.490;14.376;2023-02-14T12:04:40;103569.78;;;8.42;62.74
65557;BME280;52200;53.490;14.376;2023-02-14T12:07:18;103570.06;;;8.51;62.50
65557;BME280;52200;53.490;14.376;2023-02-14T12:09:47;103573.97;;;8.41;63.00
65557;BME280;52200;53.490;14.376;2023-02-14T12:12:21;103576.78;;;8.21;63.92
65557;BME280;52200;53.490;14.376;2023-02-14T12:14:47;103564.00;;;7.89;63.78
65557;BME280;52200;53.490;14.376;2023-02-14T12:17:32;103567.56;;;7.95;64.60
65557;BME280;52200;53.490;14.376;2023-02-14T12:20:08;103568.50;;;7.98;64.44
65557;BME280;52200;53.490;14.376;2023-02-14T12:22:46;103563.44;;;7.98;63.72
65557;BME280;52200;53.490;14.376;2023-02-14T12:25:19;103563.03;;;8.13;64.73
65557;BME280;52200;53.490;14.376;2023-02-14T12:27:55;103553.22;;;8.53;61.99
65557;BME280;52200;53.490;14.376;2023-02-14T12:30:24;103550.31;;;8.71;61.79
65557;BME280;52200;53.490;14.376;2023-02-14T12:32:54;103553.28;;;8.86;62.33
65557;BME280;52200;53.490;14.376;2023-02-14T12:40:52;103536.78;;;9.02;61.39
65557;BME280;52200;53.490;14.376;2023-02-14T12:51:50;103531.63;;;8.67;63.54
65557;BME280;52200;53.490;14.376;2023-02-14T13:07:46;103525.66;;;8.35;64.29
65557;BME280;52200;53.490;14.376;2023-02-14T13:13:11;103508.81;;;8.35;64.26
65557;BME280;52200;53.490;14.376;2023-02-14T13:21:04;103509.78;;;8.12;63.49
65557;BME280;52200;53.490;14.376;2023-02-14T13:23:41;103509.53;;;8.02;63.86
65557;BME280;52200;53.490;14.376;2023-02-14T13:26:20;103506.03;;;7.97;64.63
65557;BME280;52200;53.490;14.376;2023-02-14T13:28:54;103506.00;;;7.68;64.69
65557;BME280;52200;53.490;14.376;2023-02-14T13:31:20;103500.31;;;7.75;65.45
65557;BME280;52200;53.490;14.376;2023-02-14T13:33:51;103497.25;;;7.86;64.43
65557;BME280;52200;53.490;14.376;2023-02-14T13:36:18;103496.97;;;8.05;64.38
65557;BME280;52200;53.490;14.376;2023-02-14T13:38:49;103500.28;;;8.33;64.75
65557;BME280;52200;53.490;14.376;2023-02-14T13:41:17;103494.78;;;8.18;65.28
65557;BME280;52200;53.490;14.376;2023-02-14T13:46:10;103489.88;;;8.24;65.03
65557;BME280;52200;53.490;14.376;2023-02-14T13:48:36;103497.69;;;7.72;65.22
65557;BME280;52200;53.490;14.376;2023-02-14T13:51:03;103485.84;;;7.71;64.84
65557;BME280;52200;53.490;14.376;2023-02-14T13:55:57;103483.00;;;7.61;65.79
65557;BME280;52200;53.490;14.376;2023-02-14T13:58:23;103486.81;;;7.75;67.18
65557;BME280;52200;53.490;14.376;2023-02-14T14:00:53;103491.06;;;8.05;65.37
65557;BME280;52200;53.490;14.376;2023-02-14T14:10:56;103486.06;;;6.97;67.06
65557;BME280;52200;53.490;14.376;2023-02-14T14:21:32;103483.97;;;7.37;65.75
65557;BME280;52200;53.490;14.376;2023-02-14T14:24:05;103491.81;;;7.19;65.70
65557;BME280;52200;53.490;14.376;2023-02-14T14:26:45;103489.03;;;7.11;66.65
65557;BME280;52200;53.490;14.376;2023-02-14T14:29:38;103478.34;;;7.20;67.64
65557;BME280;52200;53.490;14.376;2023-02-14T14:32:25;103471.13;;;7.05;67.26
65557;BME280;52200;53.490;14.376;2023-02-14T14:34:57;103473.72;;;6.56;68.59
65557;BME280;52200;53.490;14.376;2023-02-14T14:37:28;103473.94;;;6.87;68.91
65557;BME280;52200;53.490;14.376;2023-02-14T14:39:59;103470.22;;;7.03;68.20
65557;BME280;52200;53.490;14.376;2023-02-14T14:42:28;103462.25;;;6.65;67.88
65557;BME280;52200;53.490;14.376;2023-02-14T14:45:04;103467.25;;;6.89;67.97
65557;BME280;52200;53.490;14.376;2023-02-14T14:50:07;103460.41;;;6.86;69.47
65557;BME280;52200;53.490;14.376;2023-02-14T14:52:37;103463.22;;;6.68;69.70
65557;BME280;52200;53.490;14.376;2023-02-14T14:55:06;103456.59;;;6.48;69.58
65557;BME280;52200;53.490;14.376;2023-02-14T14:57:37;103458.78;;;6.87;68.83
65557;BME280;52200;53.490;14.376;2023-02-14T15:00:17;103451.97;;;6.60;69.53
65557;BME280;52200;53.490;14.376;2023-02-14T15:05:43;103451.66;;;6.76;69.04
65557;BME280;52200;53.490;14.376;2023-02-14T15:08:27;103443.13;;;6.99;67.42
65557;BME280;52200;53.490;14.376;2023-02-14T15:11:15;103444.22;;;7.05;67.84
65557;BME280;52200;53.490;14.376;2023-02-14T15:14:05;103434.88;;;6.77;68.39
65557;BME280;52200;53.490;14.376;2023-02-14T15:19:40;103439.28;;;6.84;68.60
65557;BME280;52200;53.490;14.376;2023-02-14T15:22:25;103435.06;;;6.83;68.64
65557;BME280;52200;53.490;14.376;2023-02-14T15:24:51;103434.44;;;6.40;69.30
65557;BME280;52200;53.490;14.376;2023-02-14T15:27:20;103433.63;;;6.17;70.94
65557;BME280;52200;53.490;14.376;2023-02-14T15:29:57;103438.47;;;5.88;70.71